createdAt,value
2017-09-16T07:16:07.794Z,230
2017-09-16T07:17:09.197Z,230
2017-09-16T07:18:30.737Z,230
2017-09-16T07:19:32.138Z,230
2017-09-16T07:20:53.676Z,230
2017-09-16T07:21:55.083Z,236
2017-09-16T07:23:16.645Z,236
2017-09-16T07:24:18.059Z,236
2017-09-16T07:25:39.568Z,230
2017-09-16T07:26:40.975Z,225
2017-09-16T07:28:02.569Z,225
2017-09-16T07:29:03.981Z,225
2017-09-16T07:30:25.656Z,219
2017-09-16T07:31:27.073Z,225
2017-09-16T07:32:48.670Z,236
2017-09-16T07:33:50.077Z,258
2017-09-16T07:35:11.584Z,286
2017-09-16T07:36:13.049Z,298
2017-09-16T07:37:34.572Z,320
2017-09-16T07:38:35.980Z,348
2017-09-16T07:39:57.488Z,376
2017-09-16T07:40:58.896Z,376
2017-09-16T07:42:20.456Z,382
2017-09-16T07:43:21.863Z,376
2017-09-16T07:44:43.390Z,348
2017-09-16T07:45:44.797Z,337
2017-09-16T07:47:06.349Z,337
2017-09-16T07:48:07.757Z,331
2017-09-16T07:49:29.315Z,331
2017-09-16T07:50:30.724Z,326
2017-09-16T07:51:52.240Z,309
2017-09-16T07:52:53.649Z,286
2017-09-16T07:54:15.211Z,258
2017-09-16T07:55:16.621Z,236
2017-09-16T07:56:38.143Z,225
2017-09-16T07:57:39.550Z,219
2017-09-16T07:59:01.113Z,213
2017-09-16T08:00:02.526Z,208
2017-09-16T08:01:24.174Z,202
2017-09-16T08:02:25.582Z,202
2017-09-16T08:03:47.254Z,202
2017-09-16T08:04:48.661Z,202
2017-09-16T08:06:10.246Z,196
2017-09-16T08:07:11.654Z,196
2017-09-16T08:08:33.232Z,196
2017-09-16T08:09:34.638Z,202
2017-09-16T08:10:56.149Z,202
2017-09-16T08:11:57.556Z,191
2017-09-16T08:13:19.117Z,191
2017-09-16T08:14:20.527Z,185
2017-09-16T08:15:42.046Z,191
2017-09-16T08:16:43.452Z,185
2017-09-16T08:18:05.023Z,191
2017-09-16T08:19:06.431Z,185
2017-09-16T08:20:27.946Z,180
2017-09-16T08:21:29.353Z,185
2017-09-16T08:22:50.914Z,180
2017-09-16T08:23:52.324Z,185
2017-09-16T08:25:13.845Z,196
2017-09-16T08:26:15.250Z,196
2017-09-16T08:27:36.954Z,219
2017-09-16T08:28:38.362Z,196
2017-09-16T08:30:00.013Z,185
2017-09-16T08:31:01.420Z,208
2017-09-16T08:32:22.910Z,191
2017-09-16T08:33:24.318Z,185
2017-09-16T08:34:46.379Z,196
2017-09-16T08:35:47.784Z,196
2017-09-16T08:37:09.328Z,196
2017-09-16T08:38:10.737Z,191
2017-09-16T08:39:32.261Z,185
2017-09-16T08:40:33.668Z,180
2017-09-16T08:41:55.205Z,174
2017-09-16T08:42:56.614Z,174
2017-09-16T08:44:18.127Z,174
2017-09-16T08:45:19.539Z,174
2017-09-16T08:46:41.070Z,174
2017-09-16T08:47:42.495Z,174
2017-09-16T08:49:05.807Z,151
2017-09-16T08:50:07.260Z,180
2017-09-16T08:51:28.833Z,168
2017-09-16T08:52:30.248Z,168
2017-09-16T08:53:51.917Z,168
2017-09-16T08:54:53.330Z,174
2017-09-16T08:56:14.910Z,180
2017-09-16T08:57:16.312Z,174
2017-09-16T08:58:37.911Z,191
2017-09-16T08:59:39.334Z,174
2017-09-16T09:01:00.914Z,180
2017-09-16T09:02:02.530Z,213
2017-09-16T09:03:24.130Z,191
2017-09-16T09:04:25.538Z,202
2017-09-16T09:05:47.119Z,253
2017-09-16T09:06:48.526Z,230
2017-09-16T09:08:10.124Z,191
2017-09-16T09:09:11.534Z,174
2017-09-16T09:10:33.113Z,180
2017-09-16T09:11:34.519Z,196
2017-09-16T09:12:56.591Z,208
2017-09-16T09:13:57.999Z,236
2017-09-16T09:15:19.585Z,219
2017-09-16T09:16:21.072Z,219
2017-09-16T09:17:42.723Z,225
2017-09-16T09:18:44.139Z,225
2017-09-16T09:20:05.757Z,219
2017-09-16T09:21:07.168Z,208
2017-09-16T09:22:29.308Z,202
2017-09-16T09:23:30.768Z,196
2017-09-16T09:24:52.306Z,281
2017-09-16T09:25:53.717Z,264
2017-09-16T09:27:16.070Z,253
2017-09-16T09:28:17.895Z,292
2017-09-16T09:29:39.430Z,337
2017-09-16T09:30:40.858Z,354
2017-09-16T09:32:03.387Z,343
2017-09-16T09:33:04.802Z,416
2017-09-16T09:34:26.356Z,500
2017-09-16T09:35:27.770Z,376
2017-09-16T09:36:49.446Z,376
2017-09-16T09:37:50.854Z,433
2017-09-16T09:39:12.453Z,354
2017-09-16T09:40:13.963Z,433
2017-09-16T09:41:35.593Z,455
2017-09-16T09:42:37.002Z,461
2017-09-16T09:44:00.096Z,455
2017-09-16T09:45:01.508Z,511
2017-09-16T09:46:23.129Z,450
2017-09-16T09:47:24.539Z,427
2017-09-16T09:48:46.099Z,275
2017-09-16T09:49:47.510Z,331
2017-09-16T09:51:09.198Z,388
2017-09-16T09:52:10.611Z,382
2017-09-16T09:53:32.712Z,455
2017-09-16T09:54:34.120Z,354
2017-09-16T09:55:55.810Z,489
2017-09-16T09:56:57.224Z,534
2017-09-16T09:58:18.804Z,410
2017-09-16T09:59:20.216Z,393
2017-09-16T10:00:41.764Z,421
2017-09-16T10:01:43.175Z,506
2017-09-16T10:03:04.791Z,466
2017-09-16T10:04:06.203Z,371
2017-09-16T10:05:27.767Z,472
2017-09-16T10:06:29.180Z,562
2017-09-16T10:07:50.806Z,444
2017-09-16T10:08:52.216Z,393
2017-09-16T10:10:13.772Z,348
2017-09-16T10:11:15.183Z,337
2017-09-16T10:12:36.800Z,241
2017-09-16T10:13:38.218Z,225
2017-09-16T10:15:02.399Z,219
2017-09-16T10:16:03.865Z,236
2017-09-16T10:17:25.549Z,258
2017-09-16T10:18:26.958Z,258
2017-09-16T10:19:48.537Z,247
2017-09-16T10:20:49.946Z,275
2017-09-16T10:22:11.468Z,393
2017-09-16T10:23:12.909Z,376
2017-09-16T10:24:34.628Z,309
2017-09-16T10:25:36.038Z,298
2017-09-16T10:26:57.618Z,326
2017-09-16T10:27:59.028Z,315
2017-09-16T10:29:20.688Z,281
2017-09-16T10:30:22.096Z,281
2017-09-16T10:31:43.677Z,331
2017-09-16T10:32:45.086Z,320
2017-09-16T10:34:06.689Z,331
2017-09-16T10:35:08.102Z,292
2017-09-16T10:36:29.684Z,275
2017-09-16T10:37:31.188Z,286
2017-09-16T10:38:52.909Z,275
2017-09-16T10:39:54.318Z,298
2017-09-16T10:41:15.892Z,270
2017-09-16T10:42:17.349Z,270
2017-09-16T10:43:39.035Z,258
2017-09-16T10:44:40.443Z,230
2017-09-16T10:46:02.045Z,230
2017-09-16T10:47:03.457Z,225
2017-09-16T10:48:25.062Z,219
2017-09-16T10:49:26.479Z,230
2017-09-16T10:50:48.057Z,270
2017-09-16T10:51:49.483Z,281
2017-09-16T10:53:11.087Z,270
2017-09-16T10:54:12.498Z,264
2017-09-16T10:55:34.210Z,264
2017-09-16T10:56:35.617Z,253
2017-09-16T10:57:58.699Z,225
2017-09-16T10:59:00.111Z,208
2017-09-16T11:00:21.704Z,185
2017-09-16T11:01:23.171Z,174
2017-09-16T11:02:44.711Z,168
2017-09-16T11:03:46.121Z,191
2017-09-16T11:05:07.726Z,208
2017-09-16T11:06:09.133Z,208
2017-09-16T11:07:30.714Z,202
2017-09-16T11:08:32.128Z,202
2017-09-16T11:09:53.726Z,213
2017-09-16T11:10:55.143Z,230
2017-09-16T11:12:16.733Z,264
2017-09-16T11:13:18.141Z,275
2017-09-16T11:14:39.797Z,371
2017-09-16T11:15:41.247Z,331
2017-09-16T11:17:02.829Z,303
2017-09-16T11:18:04.243Z,331
2017-09-16T11:19:25.844Z,382
2017-09-16T11:20:27.254Z,450
2017-09-16T11:21:48.846Z,354
2017-09-16T11:22:50.261Z,337
2017-09-16T11:24:11.933Z,258
2017-09-16T11:25:13.348Z,219
2017-09-16T11:26:34.950Z,191
2017-09-16T11:27:36.362Z,185
2017-09-16T11:28:57.934Z,168
2017-09-16T11:29:59.343Z,168
2017-09-16T11:31:21.004Z,208
2017-09-16T11:32:22.414Z,230
2017-09-16T11:33:43.996Z,213
2017-09-16T11:34:45.450Z,208
2017-09-16T11:36:07.067Z,196
2017-09-16T11:37:08.477Z,180
2017-09-16T11:38:30.130Z,191
2017-09-16T11:39:31.543Z,185
2017-09-16T11:40:53.204Z,191
2017-09-16T11:41:54.621Z,219
2017-09-16T11:43:16.204Z,253
2017-09-16T11:44:17.649Z,236
2017-09-16T11:45:39.313Z,247
2017-09-16T11:46:40.727Z,275
2017-09-16T11:48:02.318Z,281
2017-09-16T11:49:03.727Z,286
2017-09-16T11:50:25.351Z,303
2017-09-16T11:51:26.764Z,292
2017-09-16T11:52:48.395Z,292
2017-09-16T11:53:49.806Z,303
2017-09-16T11:55:11.359Z,331
2017-09-16T11:56:12.771Z,303
2017-09-16T11:57:34.292Z,270
2017-09-16T11:58:35.703Z,253
2017-09-16T11:59:57.238Z,236
2017-09-16T12:00:58.693Z,253
2017-09-16T12:02:20.275Z,286
2017-09-16T12:03:21.719Z,253
2017-09-16T12:04:43.249Z,213
2017-09-16T12:05:44.658Z,196
2017-09-16T12:07:06.195Z,196
2017-09-16T12:08:07.608Z,219
2017-09-16T12:09:29.147Z,236
2017-09-16T12:10:30.557Z,236
2017-09-16T12:11:52.118Z,208
2017-09-16T12:12:53.530Z,208
2017-09-16T12:14:15.053Z,202
2017-09-16T12:15:16.463Z,196
2017-09-16T12:16:38.022Z,180
2017-09-16T12:17:39.435Z,168
2017-09-16T12:19:00.951Z,174
2017-09-16T12:20:02.363Z,202
2017-09-16T12:21:23.894Z,219
2017-09-16T12:22:25.305Z,213
2017-09-16T12:23:46.852Z,191
2017-09-16T12:24:48.262Z,180
2017-09-16T12:26:09.822Z,185
2017-09-16T12:27:11.232Z,191
2017-09-16T12:28:32.755Z,185
2017-09-16T12:29:34.165Z,185
2017-09-16T12:30:55.725Z,213
2017-09-16T12:31:57.134Z,196
2017-09-16T12:33:18.655Z,174
2017-09-16T12:34:20.067Z,163
2017-09-16T12:35:41.624Z,157
2017-09-16T12:36:43.036Z,157
2017-09-16T12:38:04.558Z,151
2017-09-16T12:39:05.969Z,146
2017-09-16T12:40:27.527Z,157
2017-09-16T12:41:28.943Z,168
2017-09-16T12:42:50.458Z,191
2017-09-16T12:43:51.868Z,185
2017-09-16T12:45:13.428Z,196
2017-09-16T12:46:14.837Z,196
2017-09-16T12:47:36.359Z,196
2017-09-16T12:48:37.773Z,180
2017-09-16T12:49:59.310Z,168
2017-09-16T12:51:00.719Z,163
2017-09-16T12:52:22.287Z,163
2017-09-16T12:53:23.691Z,202
2017-09-16T12:54:45.213Z,191
2017-09-16T12:55:46.623Z,219
2017-09-16T12:57:08.183Z,270
2017-09-16T12:58:09.591Z,303
2017-09-16T12:59:31.115Z,258
2017-09-16T13:00:32.526Z,219
2017-09-16T13:01:54.085Z,191
2017-09-16T13:02:55.495Z,185
2017-09-16T13:04:17.014Z,185
2017-09-16T13:05:18.426Z,180
2017-09-16T13:06:39.983Z,168
2017-09-16T13:07:41.395Z,168
2017-09-16T13:09:02.915Z,168
2017-09-16T13:10:04.329Z,168
2017-09-16T13:11:25.885Z,157
2017-09-16T13:12:27.298Z,168
2017-09-16T13:13:48.818Z,168
2017-09-16T13:14:50.231Z,168
2017-09-16T13:16:11.787Z,168
2017-09-16T13:17:13.192Z,163
2017-09-16T13:18:34.801Z,168
2017-09-16T13:19:36.210Z,157
2017-09-16T13:20:57.793Z,168
2017-09-16T13:21:59.202Z,174
2017-09-16T13:23:20.725Z,196
2017-09-16T13:24:22.142Z,208
2017-09-16T13:25:43.695Z,230
2017-09-16T13:26:45.106Z,236
2017-09-16T13:28:06.626Z,264
2017-09-16T13:29:08.036Z,253
2017-09-16T13:30:29.595Z,241
2017-09-16T13:31:31.005Z,258
2017-09-16T13:32:52.555Z,326
2017-09-16T13:33:53.945Z,309
2017-09-16T13:35:15.478Z,264
2017-09-16T13:36:16.888Z,264
2017-09-16T13:37:38.439Z,270
2017-09-16T13:38:39.858Z,286
2017-09-16T13:40:01.372Z,309
2017-09-16T13:41:02.784Z,309
2017-09-16T13:42:24.349Z,253
2017-09-16T13:43:25.763Z,241
2017-09-16T13:44:47.268Z,258
2017-09-16T13:45:48.684Z,270
2017-09-16T13:47:10.243Z,253
2017-09-16T13:48:11.654Z,247
2017-09-16T13:49:33.168Z,230
2017-09-16T13:50:34.582Z,208
2017-09-16T13:51:56.136Z,202
2017-09-16T13:52:57.549Z,213
2017-09-16T13:54:19.066Z,264
2017-09-16T13:55:20.478Z,331
2017-09-16T13:56:42.053Z,388
2017-09-16T13:57:43.462Z,388
2017-09-16T13:59:04.986Z,315
2017-09-16T14:00:06.398Z,281
2017-09-16T14:01:27.932Z,247
2017-09-16T14:02:29.344Z,236
2017-09-16T14:03:50.886Z,241
2017-09-16T14:04:52.297Z,253
2017-09-16T14:06:13.831Z,275
2017-09-16T14:07:15.241Z,281
2017-09-16T14:08:36.762Z,320
2017-09-16T14:09:38.173Z,337
2017-09-16T14:10:59.731Z,354
2017-09-16T14:12:01.141Z,365
2017-09-16T14:13:23.203Z,337
2017-09-16T14:14:24.613Z,303
2017-09-16T14:15:46.154Z,258
2017-09-16T14:16:47.563Z,247
2017-09-16T14:18:09.093Z,225
2017-09-16T14:19:10.505Z,219
2017-09-16T14:20:32.054Z,213
2017-09-16T14:21:33.465Z,213
2017-09-16T14:22:55.023Z,213
2017-09-16T14:23:56.436Z,213
2017-09-16T14:25:17.957Z,213
2017-09-16T14:26:19.371Z,208
2017-09-16T14:27:40.926Z,230
2017-09-16T14:28:42.334Z,247
2017-09-16T14:30:03.857Z,253
2017-09-16T14:31:05.276Z,253
2017-09-16T14:32:26.833Z,236
2017-09-16T14:33:28.245Z,225
2017-09-16T14:34:49.764Z,202
2017-09-16T14:35:51.171Z,196
2017-09-16T14:37:15.700Z,168
